09:59
Airports
History
Links
Donate
Help keep this website running!
PayPal
Bitcoin
This page is community maintained. The information is intended for PC simulator navigation or reference.
Always use approved charts for navigation.
FL20
Baine
Baine (FL20)
Jacksonville, Florida, United States (32218)
4
Lat/Lng:30° 31' 35.85" N / 81° 38' 26.35" W
30.526626 / -81.640653
Elevation:20'ft / 6mMSL
ID / ICAO:FL20
Runways:1
Longest:07-25
Grass 821m / 2,693ft
Nearby Weather09:56 GMT 2017-11-21
Nearby weather at KJAX, Jacksonville Intl located 3.6 nautical miles from FL20
Altimeter: 30.08
Visibility: 10.0 statute miles
Wind: 0 knots (from 000°)
Temp: 15°c / 59°f
Humidity: 87.8%

METAR: KJAX 210956Z 00000KT 10SM FEW045 BKN075 15/13 A3008 RMK AO2 RAB09E19 SLP187 P0000 T01500133

(Powered by phpweather)
Nearby VORs <50NM
Nearby NDBs
Runway 07 / 25
Dimensions:820.8 x 30.5m 2693' x 100'ft
Surface:Grass
Runway 07 [A]Runway 25 [B]
Heading:066°TH 246°TH
Lat:
Lng:
30° 31' 30.65"N
81° 38' 40.6"W
30° 31' 41.06"N
81° 38' 12.11"W
User Notes and Comments
30° 31' 35.85" N / 81° 38' 26.35" W
Distance To
Airport ID:
Nearby Airports
(C) Jacksonville Intl 3.6 NM
KJAX ( WX ) SW 231°
4 Flying-A-Ranch 6.6 NM
62J NE 39°
(R) Nassau 9.0 NM
83FL NE 44°
(U) Fernandina Beach Muni 12.2 NM
KFHB ENE 61°
(C) Jacksonville Executive At Crai 15.1 NM
KCRG ( WX ) SSE 150°
(R) Mayport Ns (adm David L. Mcdon 15.9 NM
KNRB ( WX ) SE 125°
(U) St Marys 16.4 NM
4J6 NNE 17°
VFR Chart
Flight Planning at SkyVector.com